Time,TemperatureF,DewpointF,PressureIn,WindDirection,WindDirectionDegrees,WindSpeedMPH,WindSpeedGustMPH,Humidity,HourlyPrecipIn,Conditions,Clouds,dailyrainin,SoftwareType,DateUTC
2013-10-14 00:00:00,51.0,49.0,30.31,NE,37,2.0,4.0,92,0.00,,,-99.99,,2013-10-14 04:00:00,
2013-10-14 00:44:00,51.0,49.0,30.31,NE,37,2.0,4.0,92,0.00,,,-99.99,,2013-10-14 04:44:00,
2013-10-14 00:54:00,51.0,49.0,30.31,NE,37,2.0,4.0,92,0.00,,,-99.99,,2013-10-14 04:54:00,
2013-10-14 01:00:00,50.0,48.0,30.30,North,4,2.0,5.0,91,0.00,,,-99.99,,2013-10-14 05:00:00,
2013-10-14 01:43:00,50.0,48.0,30.30,North,4,2.0,5.0,91,0.00,,,-99.99,,2013-10-14 05:43:00,
2013-10-14 01:52:00,50.0,48.0,30.30,North,4,2.0,5.0,91,0.00,,,-99.99,,2013-10-14 05:52:00,
2013-10-14 02:00:00,50.0,47.0,30.29,NE,47,0.0,5.0,92,0.00,,,-99.99,,2013-10-14 06:00:00,
2013-10-14 02:42:00,50.0,47.0,30.29,NE,47,0.0,5.0,92,0.00,,,-99.99,,2013-10-14 06:42:00,
2013-10-14 02:52:00,50.0,47.0,30.29,NE,47,0.0,5.0,92,0.00,,,-99.99,,2013-10-14 06:52:00,
2013-10-14 03:00:00,49.0,47.0,30.29,NNE,25,2.0,5.0,92,0.00,,,-99.99,,2013-10-14 07:00:00,
2013-10-14 03:42:00,49.0,47.0,30.29,NNE,25,2.0,5.0,92,0.00,,,-99.99,,2013-10-14 07:42:00,
2013-10-14 03:52:00,49.0,47.0,30.29,NNE,25,2.0,5.0,92,0.00,,,-99.99,,2013-10-14 07:52:00,
2013-10-14 04:00:00,49.0,46.0,30.29,NNE,17,2.0,5.0,90,0.00,,,-99.99,,2013-10-14 08:00:00,
2013-10-14 04:42:00,49.0,46.0,30.29,NNE,17,2.0,5.0,90,0.00,,,-99.99,,2013-10-14 08:42:00,
2013-10-14 04:52:00,49.0,46.0,30.29,NNE,17,2.0,5.0,90,0.00,,,-99.99,,2013-10-14 08:52:00,
2013-10-14 05:00:00,48.0,45.0,30.29,NNE,31,4.0,4.0,92,0.00,,,-99.99,,2013-10-14 09:00:00,
2013-10-14 05:43:00,48.0,45.0,30.29,NNE,31,4.0,4.0,92,0.00,,,-99.99,,2013-10-14 09:43:00,
2013-10-14 05:53:00,48.0,45.0,30.29,NNE,31,4.0,4.0,92,0.00,,,-99.99,,2013-10-14 09:53:00,
2013-10-14 06:00:00,48.0,45.0,30.30,NNE,13,3.0,6.0,92,0.00,,,-99.99,,2013-10-14 10:00:00,
2013-10-14 06:42:00,48.0,45.0,30.30,NNE,13,3.0,6.0,92,0.00,,,-99.99,,2013-10-14 10:42:00,
2013-10-14 06:53:00,48.0,45.0,30.30,NNE,13,3.0,6.0,92,0.00,,,-99.99,,2013-10-14 10:53:00,
2013-10-14 07:00:00,47.0,45.0,30.30,NNE,13,3.0,6.0,92,0.00,,,-99.99,,2013-10-14 11:00:00,
2013-10-14 07:42:00,47.0,45.0,30.30,NNE,13,3.0,6.0,92,0.00,,,-99.99,,2013-10-14 11:42:00,
2013-10-14 07:52:00,47.0,45.0,30.30,NNE,13,3.0,6.0,92,0.00,,,-99.99,,2013-10-14 11:52:00,
2013-10-14 08:00:00,48.0,46.0,30.30,NNE,18,2.0,4.0,93,0.00,,,-99.99,,2013-10-14 12:00:00,
2013-10-14 08:42:00,48.0,46.0,30.30,NNE,18,2.0,4.0,93,0.00,,,-99.99,,2013-10-14 12:42:00,
2013-10-14 08:52:00,48.0,46.0,30.30,NNE,18,2.0,4.0,93,0.00,,,-99.99,,2013-10-14 12:52:00,
2013-10-14 09:00:00,54.0,50.0,30.32,North,9,0.0,5.0,84,0.00,,,-99.99,,2013-10-14 13:00:00,
2013-10-14 09:42:00,54.0,50.0,30.32,North,9,0.0,5.0,84,0.00,,,-99.99,,2013-10-14 13:42:00,
2013-10-14 09:52:00,54.0,50.0,30.32,North,9,0.0,5.0,84,0.00,,,-99.99,,2013-10-14 13:52:00,
2013-10-14 10:00:00,61.0,53.0,30.31,NE,50,3.0,10.0,76,0.00,,,-99.99,,2013-10-14 14:00:00,
2013-10-14 10:42:00,61.0,53.0,30.31,NE,50,3.0,10.0,76,0.00,,,-99.99,,2013-10-14 14:42:00,
2013-10-14 10:52:00,61.0,53.0,30.31,NE,50,3.0,10.0,76,0.00,,,-99.99,,2013-10-14 14:52:00,
2013-10-14 11:00:00,63.0,52.0,30.29,ENE,76,6.0,11.0,69,0.00,,,-99.99,,2013-10-14 15:00:00,
2013-10-14 11:44:00,63.0,52.0,30.29,ENE,76,6.0,11.0,69,0.00,,,-99.99,,2013-10-14 15:44:00,
2013-10-14 11:54:00,63.0,52.0,30.29,ENE,76,6.0,11.0,69,0.00,,,-99.99,,2013-10-14 15:54:00,
2013-10-14 12:00:00,64.0,52.0,30.28,North,354,3.0,11.0,63,0.00,,,-99.99,,2013-10-14 16:00:00,
2013-10-14 12:43:00,64.0,52.0,30.28,North,354,3.0,11.0,63,0.00,,,-99.99,,2013-10-14 16:43:00,
2013-10-14 12:53:00,64.0,52.0,30.28,North,354,3.0,11.0,63,0.00,,,-99.99,,2013-10-14 16:53:00,
2013-10-14 13:00:00,65.0,51.0,30.26,East,80,5.0,10.0,60,0.00,,,-99.99,,2013-10-14 17:00:00,
2013-10-14 13:42:00,65.0,51.0,30.26,East,80,5.0,10.0,60,0.00,,,-99.99,,2013-10-14 17:42:00,
2013-10-14 13:52:00,65.0,51.0,30.26,East,80,5.0,10.0,60,0.00,,,-99.99,,2013-10-14 17:52:00,
2013-10-14 14:00:00,66.0,51.0,30.24,East,86,6.0,11.0,58,0.00,,,-99.99,,2013-10-14 18:00:00,
2013-10-14 14:43:00,66.0,51.0,30.24,East,86,6.0,11.0,58,0.00,,,-99.99,,2013-10-14 18:43:00,
2013-10-14 14:52:00,66.0,51.0,30.24,East,86,6.0,11.0,58,0.00,,,-99.99,,2013-10-14 18:52:00,
2013-10-14 15:00:00,64.0,51.0,30.23,East,85,3.0,10.0,63,0.00,,,-99.99,,2013-10-14 19:00:00,
2013-10-14 15:42:00,64.0,51.0,30.23,East,85,3.0,10.0,63,0.00,,,-99.99,,2013-10-14 19:42:00,
2013-10-14 15:52:00,64.0,51.0,30.23,East,85,3.0,10.0,63,0.00,,,-99.99,,2013-10-14 19:52:00,
2013-10-14 16:00:00,63.0,50.0,30.23,East,92,8.0,11.0,63,0.00,,,-99.99,,2013-10-14 20:00:00,
2013-10-14 16:43:00,63.0,50.0,30.23,East,92,8.0,11.0,63,0.00,,,-99.99,,2013-10-14 20:43:00,
2013-10-14 16:52:00,63.0,50.0,30.23,East,92,8.0,11.0,63,0.00,,,-99.99,,2013-10-14 20:52:00,
2013-10-14 17:00:00,62.0,50.0,30.23,ESE,117,5.0,12.0,65,0.00,,,-99.99,,2013-10-14 21:00:00,
2013-10-14 17:44:00,62.0,50.0,30.23,ESE,117,5.0,12.0,65,0.00,,,-99.99,,2013-10-14 21:44:00,
2013-10-14 17:55:00,62.0,50.0,30.23,ESE,117,5.0,12.0,65,0.00,,,-99.99,,2013-10-14 21:55:00,
2013-10-14 18:00:00,58.0,49.0,30.24,East,88,0.0,11.0,72,0.00,,,-99.99,,2013-10-14 22:00:00,
2013-10-14 18:44:00,58.0,49.0,30.24,East,88,0.0,11.0,72,0.00,,,-99.99,,2013-10-14 22:44:00,
2013-10-14 18:54:00,58.0,49.0,30.24,East,88,0.0,11.0,72,0.00,,,-99.99,,2013-10-14 22:54:00,
2013-10-14 19:00:00,53.0,49.0,30.25,South,177,0.0,0.0,86,0.00,,,-99.99,,2013-10-14 23:00:00,
2013-10-14 19:42:00,53.0,49.0,30.25,South,177,0.0,0.0,86,0.00,,,-99.99,,2013-10-14 23:42:00,
2013-10-14 19:53:00,53.0,49.0,30.25,South,177,0.0,0.0,86,0.00,,,-99.99,,2013-10-14 23:53:00,
2013-10-14 20:00:00,51.0,49.0,30.24,North,352,0.0,0.0,91,0.00,,,-99.99,,2013-10-15 00:00:00,
2013-10-14 20:43:00,51.0,49.0,30.24,North,352,0.0,0.0,91,0.00,,,-99.99,,2013-10-15 00:43:00,
2013-10-14 20:52:00,51.0,49.0,30.24,North,352,0.0,0.0,91,0.00,,,-99.99,,2013-10-15 00:52:00,
2013-10-14 21:00:00,49.0,47.0,30.24,North,353,0.0,0.0,92,0.00,,,-99.99,,2013-10-15 01:00:00,
2013-10-14 21:42:00,49.0,47.0,30.24,North,353,0.0,0.0,92,0.00,,,-99.99,,2013-10-15 01:42:00,
2013-10-14 21:52:00,49.0,47.0,30.24,North,353,0.0,0.0,92,0.00,,,-99.99,,2013-10-15 01:52:00,
2013-10-14 22:00:00,48.0,46.0,30.24,SW,226,0.0,0.0,93,0.00,,,-99.99,,2013-10-15 02:00:00,
2013-10-14 22:42:00,48.0,46.0,30.24,SW,226,0.0,0.0,93,0.00,,,-99.99,,2013-10-15 02:42:00,
2013-10-14 22:52:00,48.0,46.0,30.24,SW,226,0.0,0.0,93,0.00,,,-99.99,,2013-10-15 02:52:00,
2013-10-14 23:00:00,47.0,45.0,30.24,NNE,24,0.0,0.0,94,0.00,,,-99.99,,2013-10-15 03:00:00,
2013-10-14 23:44:00,47.0,45.0,30.24,NNE,24,0.0,0.0,94,0.00,,,-99.99,,2013-10-15 03:44:00,
2013-10-14 23:55:00,47.0,45.0,30.24,NNE,24,0.0,0.0,94,0.00,,,-99.99,,2013-10-15 03:55:00,